Time;durP1;ratioP1;P1;durP2;ratioP2;P2;SDS_P1;SDS_P2;PMS_P1;PMS_P2;Temp;Humidity;BMP_temperature;BMP_pressure;BME280_temperature;BME280_humidity;BME280_pressure;Samples;Min_cycle;Max_cycle;Signal;HPM_P1;HPM_P2
2022/04/15 00:01:53;;;;;;;11.40;7.10;;;;;;;7.33;100.00;99148.38;4161081;28;20458;-72
2022/04/15 00:03:56;;;;;;;13.10;8.43;;;;;;;7.33;100.00;99153.91;4161090;28;20388;-72
2022/04/15 00:05:56;;;;;;;12.38;8.32;;;;;;;7.29;100.00;99150.22;4158621;28;20053;-72
2022/04/15 00:07:57;;;;;;;9.60;7.65;;;;;;;7.24;100.00;99156.75;4162172;28;20409;-72
2022/04/15 00:09:57;;;;;;;9.18;6.95;;;;;;;7.21;100.00;99151.13;4160084;28;20265;-72
2022/04/15 00:12:00;;;;;;;13.00;8.15;;;;;;;7.17;100.00;99150.97;4160593;28;20133;-72
2022/04/15 00:14:00;;;;;;;;;;;;;;;7.16;100.00;99154.06;4162864;28;20099;-72
2022/04/15 00:16:05;;;;;;;10.13;7.22;;;;;;;7.16;100.00;99148.56;4163316;28;19912;-72
2022/04/15 00:18:06;;;;;;;10.82;7.65;;;;;;;7.20;100.00;99155.81;4161784;28;20160;-72
2022/04/15 00:20:07;;;;;;;11.05;8.15;;;;;;;7.17;100.00;99148.22;4162781;28;20079;-72
2022/04/15 00:22:07;;;;;;;12.50;7.85;;;;;;;7.15;100.00;99152.47;4163758;28;20052;-72
2022/04/15 00:24:07;;;;;;;13.35;8.25;;;;;;;7.07;100.00;99148.66;4160660;28;20432;-72
2022/04/15 00:26:08;;;;;;;11.80;7.43;;;;;;;7.01;100.00;99145.31;4161969;28;20036;-72
2022/04/15 00:28:08;;;;;;;9.85;7.40;;;;;;;6.95;100.00;99152.16;4162216;28;20021;-72
2022/04/15 00:30:10;;;;;;;12.98;8.15;;;;;;;6.90;100.00;99146.88;4161397;28;20037;-72
2022/04/15 00:32:10;;;;;;;12.65;7.90;;;;;;;6.85;100.00;99149.81;4161390;28;20029;-72
2022/04/15 00:34:10;;;;;;;11.73;8.07;;;;;;;6.84;100.00;99148.22;4162921;28;20100;-72
2022/04/15 00:36:11;;;;;;;11.75;7.68;;;;;;;6.82;100.00;99153.25;4158070;28;20317;-72
2022/04/15 00:38:11;;;;;;;11.07;8.10;;;;;;;6.81;100.00;99148.09;4159856;28;20042;-72
2022/04/15 00:40:12;;;;;;;11.65;8.38;;;;;;;6.83;100.00;99152.09;4160740;28;20033;-72
2022/04/15 00:42:12;;;;;;;9.90;7.60;;;;;;;6.83;100.00;99151.31;4162977;28;20123;-72
2022/04/15 00:44:14;;;;;;;10.98;7.90;;;;;;;6.85;100.00;99138.00;4159045;28;20467;-72
2022/04/15 00:46:15;;;;;;;11.80;7.95;;;;;;;6.90;100.00;99146.06;4161939;28;20035;-72
2022/04/15 00:48:16;;;;;;;12.43;7.47;;;;;;;6.93;100.00;99146.19;4161096;28;20070;-72
2022/04/15 00:50:19;;;;;;;13.43;7.40;;;;;;;7.08;99.51;99147.50;4160741;28;20086;-72
2022/04/15 00:52:21;;;;;;;10.07;7.65;;;;;;;7.10;100.00;99150.72;4160217;28;20065;-72
2022/04/15 00:54:23;;;;;;;14.48;8.38;;;;;;;7.12;100.00;99150.41;4163422;28;20125;-72
2022/04/15 00:56:29;;;;;;;10.98;8.07;;;;;;;7.04;100.00;99143.84;4161745;28;20124;-72
2022/04/15 00:58:31;;;;;;;12.70;8.80;;;;;;;6.98;100.00;99143.22;4159743;28;20530;-72
2022/04/15 01:00:34;;;;;;;14.23;7.97;;;;;;;6.87;100.00;99147.56;4161511;28;20037;-72
2022/04/15 01:02:35;;;;;;;12.50;8.15;;;;;;;6.82;100.00;99144.19;4160782;28;20831;-72
2022/04/15 01:04:37;;;;;;;11.27;7.93;;;;;;;6.78;100.00;99149.53;4160248;28;20049;-72
2022/04/15 01:06:38;;;;;;;13.80;8.88;;;;;;;6.70;100.00;99142.16;4159911;28;20041;-72
2022/04/15 01:08:41;;;;;;;13.18;9.02;;;;;;;6.68;100.00;99141.72;4164194;28;20622;-72
2022/04/15 01:10:43;;;;;;;13.52;8.82;;;;;;;6.67;100.00;99145.59;4159596;28;20080;-72
2022/04/15 01:12:48;;;;;;;15.13;8.68;;;;;;;6.65;100.00;99140.44;4160387;28;20365;-72
2022/04/15 01:14:49;;;;;;;12.65;8.20;;;;;;;6.67;100.00;99140.91;4166451;28;20045;-71
2022/04/15 01:16:50;;;;;;;11.90;7.88;;;;;;;6.71;100.00;99143.81;4162944;28;20735;-72
2022/04/15 01:18:50;;;;;;;11.80;7.32;;;;;;;6.75;100.00;99142.78;4164676;28;20037;-72
2022/04/15 01:20:52;;;;;;;10.93;7.70;;;;;;;6.76;100.00;99144.38;4158500;28;20101;-72
2022/04/15 01:23:09;;;;;;;10.70;7.47;;;;;;;6.78;100.00;99144.03;4164899;28;20045;-72
2022/04/15 01:25:12;;;;;;;11.38;7.28;;;;;;;6.75;100.00;99144.72;4163579;28;20043;-72
2022/04/15 01:27:31;;;;;;;14.30;8.57;;;;;;;6.72;100.00;99148.97;4161676;28;20041;-72
2022/04/15 01:29:39;;;;;;;12.38;7.70;;;;;;;6.68;100.00;99148.00;4161214;28;20529;-72
2022/04/15 01:31:39;;;;;;;9.90;7.25;;;;;;;6.61;100.00;99150.50;4165215;28;20094;-72
2022/04/15 01:33:40;;;;;;;12.27;8.07;;;;;;;6.55;100.00;99145.56;4164305;28;20053;-72
2022/04/15 01:35:41;;;;;;;12.30;9.13;;;;;;;6.48;100.00;99154.31;4158057;28;20413;-72
2022/04/15 01:37:43;;;;;;;11.52;8.15;;;;;;;6.43;100.00;99155.31;4163182;28;20050;-72
2022/04/15 01:39:43;;;;;;;12.45;8.32;;;;;;;6.36;100.00;99160.53;4165039;28;20136;-72
2022/04/15 01:41:44;;;;;;;14.10;8.48;;;;;;;6.29;100.00;99154.78;4166495;28;20457;-72
2022/04/15 01:43:44;;;;;;;11.25;8.38;;;;;;;6.25;100.00;99159.31;4162920;28;20053;-72
2022/04/15 01:45:44;;;;;;;11.05;8.18;;;;;;;6.22;100.00;99153.69;4165064;28;20037;-72
2022/04/15 01:47:45;;;;;;;10.38;8.00;;;;;;;6.14;100.00;99158.91;4163497;28;20358;-72
2022/04/15 01:49:45;;;;;;;10.68;7.65;;;;;;;6.10;100.00;99157.94;4161369;28;20053;-72
2022/04/15 01:51:45;;;;;;;11.38;7.68;;;;;;;6.07;100.00;99161.38;4163613;28;20037;-72
2022/04/15 01:53:45;;;;;;;12.57;7.97;;;;;;;6.03;100.00;99157.66;4168488;28;20041;-72
2022/04/15 01:55:46;;;;;;;13.30;7.40;;;;;;;6.06;100.00;99157.00;4163637;28;20045;-72
2022/04/15 01:57:46;;;;;;;8.85;6.97;;;;;;;6.07;100.00;99166.88;4162408;28;20033;-71
2022/04/15 01:59:47;;;;;;;10.25;7.38;;;;;;;6.08;100.00;99149.25;4162871;28;20080;-71
2022/04/15 02:01:48;;;;;;;9.27;6.72;;;;;;;6.10;100.00;99146.97;4158018;28;20041;-72
2022/04/15 02:03:48;;;;;;;12.88;7.38;;;;;;;6.05;100.00;99149.13;4166236;28;20374;-71
2022/04/15 02:05:48;;;;;;;12.57;8.25;;;;;;;5.99;100.00;99153.97;4164150;28;20060;-71
2022/04/15 02:07:49;;;;;;;9.10;7.03;;;;;;;5.95;100.00;99152.22;4160436;28;20041;-72
2022/04/15 02:09:49;;;;;;;10.25;7.65;;;;;;;5.92;100.00;99153.69;4158448;28;20060;-71
2022/04/15 02:11:49;;;;;;;10.57;7.78;;;;;;;5.90;100.00;99159.50;4164628;28;20399;-72
2022/04/15 02:13:49;;;;;;;10.10;7.57;;;;;;;5.87;100.00;99151.09;4159696;28;20041;-71
2022/04/15 02:15:50;;;;;;;10.48;8.02;;;;;;;5.84;100.00;99160.00;4166170;28;20436;-71
2022/04/15 02:17:50;;;;;;;12.68;8.73;;;;;;;5.83;100.00;99156.44;4163040;28;20045;-72
2022/04/15 02:19:52;;;;;;;11.70;9.55;;;;;;;5.81;100.00;99153.22;4163925;28;20041;-71
2022/04/15 02:21:52;;;;;;;12.48;8.90;;;;;;;5.80;100.00;99162.59;4163030;28;20050;-72
2022/04/15 02:23:53;;;;;;;10.98;8.32;;;;;;;5.79;100.00;99154.69;4165399;28;20047;-72
2022/04/15 02:25:53;;;;;;;11.35;8.25;;;;;;;5.82;100.00;99156.78;4163058;28;20037;-72
2022/04/15 02:27:53;;;;;;;11.55;8.38;;;;;;;5.85;100.00;99158.84;4161420;28;20128;-72
2022/04/15 02:29:54;;;;;;;12.02;8.32;;;;;;;5.84;100.00;99160.78;4163683;28;20084;-72
2022/04/15 02:31:54;;;;;;;12.50;8.95;;;;;;;5.88;100.00;99164.50;4159605;28;20355;-72
2022/04/15 02:33:55;;;;;;;14.35;9.35;;;;;;;5.94;100.00;99167.88;4163282;28;20046;-72
2022/04/15 02:35:55;;;;;;;12.60;8.82;;;;;;;5.96;100.00;99168.38;4164678;28;20069;-72
2022/04/15 02:37:55;;;;;;;14.52;11.13;;;;;;;6.02;100.00;99178.03;4163414;28;20366;-72
2022/04/15 02:39:56;;;;;;;12.80;8.63;;;;;;;6.04;100.00;99177.69;4162535;28;20067;-71
2022/04/15 02:41:56;;;;;;;14.40;8.93;;;;;;;6.03;100.00;99182.38;4162772;28;20341;-72
2022/04/15 02:43:57;;;;;;;12.48;10.50;;;;;;;5.91;100.00;99182.28;4162605;28;20060;-72
2022/04/15 02:46:05;;;;;;;16.33;10.43;;;;;;;5.87;100.00;99173.06;4161297;28;20056;-71
2022/04/15 02:48:06;;;;;;;15.82;10.70;;;;;;;5.84;100.00;99170.97;4160288;28;20100;-71
2022/04/15 02:50:07;;;;;;;18.45;11.35;;;;;;;5.84;100.00;99177.28;4160241;28;20061;-72
2022/04/15 02:52:07;;;;;;;19.48;11.90;;;;;;;5.83;100.00;99183.91;4160299;28;20033;-71
2022/04/15 02:54:07;;;;;;;20.65;12.30;;;;;;;5.75;100.00;99172.97;4163899;28;20025;-72
2022/04/15 02:56:08;;;;;;;29.30;15.00;;;;;;;5.75;100.00;99167.47;4164118;28;20017;-72
2022/04/15 02:58:08;;;;;;;30.73;14.90;;;;;;;5.74;100.00;99176.84;4159093;28;20033;-71
2022/04/15 03:00:09;;;;;;;28.30;15.32;;;;;;;5.72;100.00;99184.59;4165386;28;20071;-72
2022/04/15 03:02:09;;;;;;;23.20;13.38;;;;;;;5.66;100.00;99185.91;4161722;28;20721;-72
2022/04/15 03:04:10;;;;;;;21.88;12.70;;;;;;;5.56;100.00;99181.59;4157816;28;20102;-72
2022/04/15 03:06:10;;;;;;;20.73;11.65;;;;;;;5.50;100.00;99174.66;4161878;28;20044;-71
2022/04/15 03:08:11;;;;;;;14.32;9.73;;;;;;;5.51;100.00;99185.31;4159374;28;20029;-72
2022/04/15 03:10:11;;;;;;;16.65;11.40;;;;;;;5.50;100.00;99189.19;4160534;28;20033;-72
2022/04/15 03:12:11;;;;;;;19.65;12.07;;;;;;;5.52;100.00;99178.69;4158811;28;20045;-71
2022/04/15 03:14:12;;;;;;;23.60;11.70;;;;;;;5.61;100.00;99179.44;4158034;28;20029;-71
2022/04/15 03:16:12;;;;;;;14.50;10.68;;;;;;;5.69;100.00;99185.25;4158290;28;20112;-72
2022/04/15 03:18:13;;;;;;;15.52;10.90;;;;;;;5.73;100.00;99178.78;4156340;28;20295;-71
2022/04/15 03:20:14;;;;;;;17.08;9.73;;;;;;;5.78;100.00;99181.31;4158264;28;20029;-71
2022/04/15 03:22:16;;;;;;;17.85;10.93;;;;;;;5.78;100.00;99189.56;4156184;28;20033;-72
2022/04/15 03:24:16;;;;;;;16.35;11.77;;;;;;;5.76;100.00;99182.81;4155933;28;20350;-72
2022/04/15 03:26:17;;;;;;;15.88;10.88;;;;;;;5.78;100.00;99191.50;4156005;28;20040;-72
2022/04/15 03:28:17;;;;;;;17.90;11.18;;;;;;;5.78;100.00;99186.81;4156634;28;20028;-71
2022/04/15 03:30:17;;;;;;;20.25;11.55;;;;;;;5.81;100.00;99190.88;4155056;28;20022;-71
2022/04/15 03:32:18;;;;;;;17.55;10.95;;;;;;;5.83;100.00;99183.09;4162257;28;20047;-71
2022/04/15 03:34:18;;;;;;;14.50;10.80;;;;;;;5.88;100.00;99185.69;4167388;28;20033;-72
2022/04/15 03:36:19;;;;;;;16.10;10.85;;;;;;;5.93;100.00;99181.97;4155230;28;20476;-72
2022/04/15 03:38:19;;;;;;;20.50;11.48;;;;;;;6.01;100.00;99181.91;4154688;28;20300;-71
2022/04/15 03:40:20;;;;;;;14.88;9.85;;;;;;;6.03;100.00;99187.06;4156104;28;20108;-71
2022/04/15 03:42:21;;;;;;;17.00;11.07;;;;;;;6.15;100.00;99190.75;4155606;28;20048;-71
2022/04/15 03:44:21;;;;;;;15.13;10.48;;;;;;;6.11;100.00;99180.72;4156749;28;20041;-72
2022/04/15 03:46:21;;;;;;;20.08;13.23;;;;;;;6.07;100.00;99188.84;4157636;28;20046;-72
2022/04/15 03:48:22;;;;;;;17.58;11.43;;;;;;;6.07;100.00;99185.28;4154951;28;20473;-71
2022/04/15 03:50:22;;;;;;;16.70;11.07;;;;;;;6.10;100.00;99187.38;4155642;28;20433;-71
2022/04/15 03:52:23;;;;;;;18.33;11.52;;;;;;;6.08;100.00;99189.66;4155788;28;20047;-71
2022/04/15 03:54:23;;;;;;;18.63;11.52;;;;;;;6.08;100.00;99197.88;4155072;28;20037;-71
2022/04/15 03:56:23;;;;;;;17.70;11.57;;;;;;;6.09;100.00;99200.28;4157284;28;20182;-71
2022/04/15 03:58:23;;;;;;;18.60;11.80;;;;;;;6.09;100.00;99194.00;4154956;28;20301;-71
2022/04/15 04:00:24;;;;;;;16.27;10.63;;;;;;;6.10;100.00;99193.66;4156986;28;20132;-72
2022/04/15 04:02:25;;;;;;;17.77;11.38;;;;;;;6.18;100.00;99192.00;4157110;28;20076;-71
2022/04/15 04:04:25;;;;;;;17.58;11.05;;;;;;;6.16;100.00;99192.34;4155542;28;20065;-71
2022/04/15 04:06:25;;;;;;;21.27;11.75;;;;;;;6.16;100.00;99197.84;4157232;28;20045;-71
2022/04/15 04:08:26;;;;;;;18.33;11.43;;;;;;;6.16;100.00;99189.59;4154899;28;20052;-71
2022/04/15 04:10:26;;;;;;;19.05;12.30;;;;;;;6.13;100.00;99195.78;4153557;28;20049;-72
2022/04/15 04:12:31;;;;;;;20.75;11.35;;;;;;;6.13;100.00;99195.78;4155079;28;20068;-71
2022/04/15 04:14:31;;;;;;;19.15;11.60;;;;;;;6.16;100.00;99194.28;4157233;28;20065;-71
2022/04/15 04:16:32;;;;;;;16.95;11.20;;;;;;;6.13;100.00;99197.72;4154199;28;20057;-72
2022/04/15 04:18:32;;;;;;;16.33;11.40;;;;;;;6.04;100.00;99192.25;4159389;28;20072;-71
2022/04/15 04:20:32;;;;;;;18.83;10.48;;;;;;;6.09;100.00;99194.00;4155925;28;20045;-71
2022/04/15 04:22:35;;;;;;;17.65;10.85;;;;;;;6.09;100.00;99196.75;4155311;28;20048;-71
2022/04/15 04:24:35;;;;;;;18.08;11.75;;;;;;;6.02;100.00;99199.19;4155520;28;20367;-71
2022/04/15 04:26:35;;;;;;;16.45;11.15;;;;;;;6.03;100.00;99198.06;4154087;28;20064;-72
2022/04/15 04:28:36;;;;;;;15.45;10.85;;;;;;;5.98;100.00;99201.81;4154560;28;20140;-71
2022/04/15 04:30:36;;;;;;;15.07;10.38;;;;;;;6.00;100.00;99190.50;4155680;28;20649;-71
2022/04/15 04:32:36;;;;;;;19.70;11.23;;;;;;;5.97;100.00;99197.47;4155506;28;20433;-71
2022/04/15 04:34:37;;;;;;;16.00;10.75;;;;;;;6.01;100.00;99200.34;4156867;28;20033;-71
2022/04/15 04:36:37;;;;;;;15.50;10.27;;;;;;;5.98;100.00;99210.06;4153343;28;20385;-71
2022/04/15 04:38:37;;;;;;;18.20;11.02;;;;;;;5.99;100.00;99213.59;4155610;28;20355;-72
2022/04/15 04:40:38;;;;;;;15.23;9.65;;;;;;;6.01;100.00;99208.59;4155830;28;20422;-71
2022/04/15 04:42:40;;;;;;;18.65;11.30;;;;;;;6.03;100.00;99217.28;4157240;28;20503;-71
2022/04/15 04:44:41;;;;;;;15.68;9.93;;;;;;;6.01;100.00;99216.81;4154462;28;20061;-72
2022/04/15 04:46:41;;;;;;;15.95;10.73;;;;;;;6.05;100.00;99226.03;4154968;28;20095;-71
2022/04/15 04:48:42;;;;;;;15.48;10.98;;;;;;;6.07;100.00;99230.06;4154383;28;20474;-71
2022/04/15 04:50:42;;;;;;;18.88;11.55;;;;;;;6.10;100.00;99234.88;4156864;28;20045;-71
2022/04/15 04:52:43;;;;;;;15.75;10.82;;;;;;;6.13;100.00;99234.22;4154438;28;20040;-71
2022/04/15 04:54:44;;;;;;;23.90;13.35;;;;;;;6.14;100.00;99237.78;4156077;28;20064;-71
2022/04/15 04:56:44;;;;;;;24.38;13.50;;;;;;;6.14;100.00;99226.78;4156754;28;20104;-72
2022/04/15 04:58:44;;;;;;;18.13;11.65;;;;;;;6.19;100.00;99238.38;4154586;28;20406;-72
2022/04/15 05:00:45;;;;;;;17.92;11.57;;;;;;;6.28;100.00;99240.28;4158302;28;20076;-71
2022/04/15 05:02:45;;;;;;;17.25;11.25;;;;;;;6.37;100.00;99241.88;4158170;28;20621;-71
2022/04/15 05:04:46;;;;;;;16.67;11.18;;;;;;;6.47;100.00;99252.50;4154485;28;20054;-71
2022/04/15 05:06:46;;;;;;;18.77;11.48;;;;;;;6.54;100.00;99248.38;4154913;28;20135;-71
2022/04/15 05:08:47;;;;;;;15.45;10.68;;;;;;;6.62;100.00;99251.13;4153839;28;20083;-71
2022/04/15 05:10:47;;;;;;;16.75;11.18;;;;;;;6.69;100.00;99250.56;4155184;28;20189;-71
2022/04/15 05:12:48;;;;;;;16.88;12.20;;;;;;;6.72;100.00;99252.66;4165078;28;20559;-72
2022/04/15 05:14:48;;;;;;;15.38;10.80;;;;;;;6.72;100.00;99250.72;4162503;28;20280;-71
2022/04/15 05:16:48;;;;;;;16.80;11.10;;;;;;;6.75;100.00;99252.78;4156597;28;20040;-71
2022/04/15 05:18:49;;;;;;;16.75;10.70;;;;;;;6.79;100.00;99257.66;4159277;28;20046;-72
2022/04/15 05:20:49;;;;;;;16.30;11.55;;;;;;;6.80;100.00;99262.81;4160438;28;20045;-72
2022/04/15 05:22:50;;;;;;;18.33;10.73;;;;;;;6.80;100.00;99268.31;4164147;28;20037;-71
2022/04/15 05:24:51;;;;;;;22.08;12.00;;;;;;;6.83;100.00;99262.13;4164969;28;20643;-71
2022/04/15 05:26:51;;;;;;;15.35;9.60;;;;;;;6.84;100.00;99269.22;4159755;28;20152;-72
2022/04/15 05:28:52;;;;;;;13.20;10.15;;;;;;;6.88;100.00;99277.66;4160449;28;20128;-71
2022/04/15 05:30:52;;;;;;;16.73;11.40;;;;;;;6.89;100.00;99271.81;4157667;28;20048;-71
2022/04/15 05:32:52;;;;;;;16.48;10.82;;;;;;;6.91;100.00;99272.25;4160094;28;20053;-71
2022/04/15 05:34:53;;;;;;;16.95;11.68;;;;;;;6.96;100.00;99274.81;4073293;28;20116;-71
2022/04/15 05:36:53;;;;;;;18.17;12.52;;;;;;;6.97;100.00;99275.63;4154357;28;20049;-71
2022/04/15 05:38:53;;;;;;;17.13;11.35;;;;;;;7.00;100.00;99288.72;4157739;28;20045;-71
2022/04/15 05:40:54;;;;;;;17.75;11.85;;;;;;;6.99;100.00;99276.91;4163812;28;20223;-71
2022/04/15 05:42:55;;;;;;;17.08;11.38;;;;;;;7.01;100.00;99285.63;4154281;28;20121;-71
2022/04/15 05:44:55;;;;;;;23.63;13.40;;;;;;;7.06;100.00;99281.88;4157994;28;20029;-71
2022/04/15 05:46:56;;;;;;;18.10;12.77;;;;;;;7.13;100.00;99286.84;4163291;28;20121;-71
2022/04/15 05:48:57;;;;;;;17.13;11.63;;;;;;;7.19;100.00;99291.00;4160033;28;20088;-72
2022/04/15 05:50:57;;;;;;;18.98;12.88;;;;;;;7.22;100.00;99296.66;4159977;28;20061;-71
2022/04/15 05:52:57;;;;;;;20.48;12.60;;;;;;;7.25;100.00;99297.91;4159291;28;20038;-71
2022/04/15 05:54:58;;;;;;;19.17;12.15;;;;;;;7.30;100.00;99303.22;4164046;28;20136;-72
2022/04/15 05:56:58;;;;;;;19.35;12.60;;;;;;;7.31;100.00;99302.09;4163982;28;20044;-71
2022/04/15 05:58:58;;;;;;;19.05;12.43;;;;;;;7.35;100.00;99297.50;4160153;28;20045;-72
2022/04/15 06:00:59;;;;;;;17.45;10.90;;;;;;;7.37;100.00;99297.19;4165749;28;20076;-71
2022/04/15 06:02:59;;;;;;;17.67;11.13;;;;;;;7.41;100.00;99298.09;4161111;28;20107;-72
2022/04/15 06:05:00;;;;;;;17.75;12.38;;;;;;;7.48;100.00;99306.63;4164462;28;20048;-72
2022/04/15 06:07:00;;;;;;;21.83;13.05;;;;;;;7.55;100.00;99306.91;4158263;28;20041;-71
2022/04/15 06:09:02;;;;;;;24.27;15.98;;;;;;;7.66;100.00;99310.03;4163035;28;20422;-72
2022/04/15 06:11:04;;;;;;;23.77;15.30;;;;;;;7.69;100.00;99301.88;4168994;28;20045;-72
2022/04/15 06:13:06;;;;;;;25.48;15.68;;;;;;;7.76;100.00;99310.41;4160200;28;20053;-72
2022/04/15 06:15:07;;;;;;;19.58;12.70;;;;;;;7.84;100.00;99309.53;4164214;28;20207;-71
2022/04/15 06:17:07;;;;;;;19.30;11.18;;;;;;;7.93;100.00;99314.13;4157977;28;20500;-72
2022/04/15 06:19:08;;;;;;;18.83;11.50;;;;;;;8.05;100.00;99308.69;4163359;28;20393;-71
2022/04/15 06:21:09;;;;;;;16.45;10.82;;;;;;;8.15;100.00;99310.97;4159047;28;20035;-71
2022/04/15 06:23:11;;;;;;;25.02;14.30;;;;;;;8.27;100.00;99305.47;4161762;28;20045;-71
2022/04/15 06:25:12;;;;;;;14.63;8.77;;;;;;;8.41;98.26;99299.69;4159574;28;20049;-71
2022/04/15 06:27:12;;;;;;;15.57;10.13;;;;;;;8.58;98.15;99310.47;4157509;28;20042;-71
2022/04/15 06:29:12;;;;;;;16.02;10.68;;;;;;;8.66;97.78;99308.75;4163588;28;20478;-71
2022/04/15 06:31:14;;;;;;;17.52;10.85;;;;;;;8.79;95.63;99304.84;4161536;28;20037;-71
2022/04/15 06:33:16;;;;;;;15.88;9.07;;;;;;;8.90;95.09;99302.44;4162295;28;20092;-71
2022/04/15 06:35:16;;;;;;;12.38;7.93;;;;;;;8.96;95.64;99303.81;4162174;28;20555;-71
2022/04/15 06:37:17;;;;;;;17.15;9.02;;;;;;;9.06;95.73;99297.81;4162879;28;20041;-71
2022/04/15 06:39:17;;;;;;;11.80;8.10;;;;;;;9.12;94.23;99312.19;4161824;28;20056;-71
2022/04/15 06:41:17;;;;;;;13.98;8.45;;;;;;;9.19;94.56;99310.44;4158893;28;20045;-71
2022/04/15 06:43:19;;;;;;;11.98;8.40;;;;;;;9.24;95.11;99320.44;4164924;28;20579;-71
2022/04/15 06:45:20;;;;;;;14.98;8.55;;;;;;;9.25;94.75;99319.28;4157014;28;20156;-71
2022/04/15 06:47:20;;;;;;;12.20;8.13;;;;;;;9.28;93.67;99313.88;4159641;28;20078;-71
2022/04/15 06:49:21;;;;;;;12.43;8.82;;;;;;;9.24;94.58;99325.94;4161992;28;20073;-71
2022/04/15 06:51:25;;;;;;;16.48;9.00;;;;;;;9.19;94.27;99327.00;4158232;28;20053;-71
2022/04/15 06:53:25;;;;;;;11.95;8.32;;;;;;;9.16;94.66;99330.44;4163061;28;20044;-71
2022/04/15 06:55:26;;;;;;;23.05;11.90;;;;;;;9.19;92.93;99326.22;4159274;28;20052;-71
2022/04/15 06:57:26;;;;;;;35.25;16.40;;;;;;;9.24;91.41;99325.94;4157023;28;20041;-71
2022/04/15 06:59:26;;;;;;;15.98;9.70;;;;;;;9.25;90.38;99339.41;4168545;28;20098;-71
2022/04/15 07:01:30;;;;;;;12.70;8.50;;;;;;;9.21;89.85;99326.66;4162819;28;20049;-71
2022/04/15 07:03:31;;;;;;;14.40;9.60;;;;;;;9.26;89.69;99335.47;4159886;28;20396;-71
2022/04/15 07:05:32;;;;;;;15.35;9.38;;;;;;;9.19;90.13;99342.78;4162889;28;20052;-71
2022/04/15 07:07:32;;;;;;;15.20;9.63;;;;;;;9.19;89.87;99331.72;4160661;28;20041;-71
2022/04/15 07:09:33;;;;;;;12.63;8.43;;;;;;;9.16;90.21;99335.16;4163735;28;20045;-71
2022/04/15 07:11:33;;;;;;;14.95;9.50;;;;;;;9.17;91.12;99334.81;4159717;28;20051;-71
2022/04/15 07:13:34;;;;;;;15.70;9.50;;;;;;;9.20;90.67;99344.38;4163503;28;20051;-71
2022/04/15 07:15:34;;;;;;;12.85;7.88;;;;;;;9.30;90.87;99349.41;4163057;28;20045;-71
2022/04/15 07:17:34;;;;;;;12.43;8.05;;;;;;;9.41;88.65;99346.97;4163892;28;20045;-71
2022/04/15 07:19:35;;;;;;;11.35;7.97;;;;;;;9.38;88.26;99333.88;4155385;28;20843;-71
2022/04/15 07:21:36;;;;;;;14.15;8.40;;;;;;;9.49;88.45;99343.25;4163647;28;20388;-71
2022/04/15 07:23:37;;;;;;;10.45;7.35;;;;;;;9.63;88.45;99340.13;4163941;28;20080;-71
2022/04/15 07:25:37;;;;;;;11.85;7.43;;;;;;;9.65;86.36;99338.59;4164678;28;20048;-71
2022/04/15 07:27:37;;;;;;;11.48;7.68;;;;;;;9.73;86.89;99336.84;4161905;28;20428;-71
2022/04/15 07:29:38;;;;;;;11.80;7.72;;;;;;;9.73;84.35;99336.84;4161903;28;20057;-71
2022/04/15 07:31:40;;;;;;;14.20;8.20;;;;;;;9.69;83.39;99338.72;4161602;28;20064;-71
2022/04/15 07:33:40;;;;;;;9.38;6.10;;;;;;;9.70;82.75;99343.09;4163192;28;20496;-71
2022/04/15 07:35:41;;;;;;;10.13;6.60;;;;;;;9.80;83.69;99340.63;4163115;28;20429;-71
2022/04/15 07:37:41;;;;;;;7.95;5.72;;;;;;;10.00;84.22;99335.22;4162192;28;20057;-71
2022/04/15 07:39:42;;;;;;;6.53;5.05;;;;;;;10.09;79.52;99342.22;4159837;28;20037;-71
2022/04/15 07:41:42;;;;;;;8.30;6.10;;;;;;;10.16;79.93;99338.81;4157253;28;20087;-71
2022/04/15 07:43:44;;;;;;;11.80;6.75;;;;;;;10.28;82.75;99338.81;4156324;28;20055;-71
2022/04/15 07:45:45;;;;;;;13.10;7.40;;;;;;;10.33;83.39;99337.72;4164282;28;20059;-71
2022/04/15 07:47:47;;;;;;;11.23;7.15;;;;;;;10.29;82.19;99337.63;4159369;28;20053;-71
2022/04/15 07:49:50;;;;;;;9.55;7.07;;;;;;;10.29;83.43;99347.91;4162765;28;20468;-71
2022/04/15 07:51:50;;;;;;;;;;;;;;;10.17;80.07;99359.00;4162577;28;20056;-71
2022/04/15 07:53:51;;;;;;;13.05;7.70;;;;;;;10.14;82.34;99352.22;4155310;28;19917;-71
2022/04/15 07:55:51;;;;;;;11.10;7.90;;;;;;;9.82;85.66;99348.56;4162606;28;20115;-71
2022/04/15 07:57:53;;;;;;;12.13;7.25;;;;;;;9.76;86.86;99350.78;4167015;28;20062;-71
2022/04/15 07:59:53;;;;;;;15.10;7.65;;;;;;;9.57;87.77;99345.88;4158004;28;20046;-71
2022/04/15 08:01:54;;;;;;;12.20;7.13;;;;;;;9.46;88.24;99358.59;4161914;28;20053;-71
2022/04/15 08:03:55;;;;;;;14.60;9.25;;;;;;;9.38;89.65;99362.28;4160236;28;20045;-71
2022/04/15 08:05:57;;;;;;;20.60;15.60;;;;;;;9.31;89.99;99370.34;4161125;28;20084;-71
2022/04/15 08:07:57;;;;;;;12.05;8.90;;;;;;;9.35;89.97;99378.72;4159139;28;20060;-72
2022/04/15 08:09:58;;;;;;;12.13;6.93;;;;;;;9.20;89.18;99381.06;4162021;28;20152;-71
2022/04/15 08:11:58;;;;;;;10.27;7.70;;;;;;;9.14;89.62;99378.88;4160583;28;20060;-71
2022/04/15 08:13:59;;;;;;;14.77;10.10;;;;;;;9.10;89.55;99380.72;4160047;28;20429;-71
2022/04/15 08:15:59;;;;;;;10.38;7.40;;;;;;;9.08;89.57;99391.31;4160350;28;20033;-71
2022/04/15 08:18:00;;;;;;;13.07;8.13;;;;;;;9.01;88.83;99391.88;4157924;28;20534;-71
2022/04/15 08:20:00;;;;;;;13.02;9.00;;;;;;;8.97;88.26;99391.78;4161018;28;20046;-71
2022/04/15 08:22:03;;;;;;;11.43;7.13;;;;;;;8.83;89.11;99384.97;4159359;28;20049;-72
2022/04/15 08:24:03;;;;;;;10.05;6.65;;;;;;;8.88;87.74;99388.34;4159269;28;20132;-71
2022/04/15 08:26:04;;;;;;;11.95;6.63;;;;;;;8.94;87.02;99397.19;4155035;28;20116;-72
2022/04/15 08:28:05;;;;;;;11.18;7.15;;;;;;;8.93;88.26;99404.63;4154260;28;20113;-71
2022/04/15 08:30:06;;;;;;;12.60;7.55;;;;;;;9.08;88.21;99405.91;4161396;28;20032;-71
2022/04/15 08:32:08;;;;;;;12.80;6.85;;;;;;;9.02;88.87;99401.81;4164492;28;20076;-71
2022/04/15 08:34:08;;;;;;;10.02;7.00;;;;;;;9.03;87.19;99408.13;4157729;28;20026;-71
2022/04/15 08:36:09;;;;;;;8.45;5.90;;;;;;;9.01;86.03;99403.72;4159276;28;20514;-71
2022/04/15 08:38:09;;;;;;;10.13;6.68;;;;;;;9.05;85.73;99401.09;4165677;28;20457;-71
2022/04/15 08:40:12;;;;;;;12.32;7.50;;;;;;;9.08;86.58;99408.69;4156687;28;20021;-71
2022/04/15 08:42:14;;;;;;;9.23;5.88;;;;;;;9.12;85.44;99406.03;4157588;28;20033;-71
2022/04/15 08:44:14;;;;;;;8.65;6.85;;;;;;;9.29;84.98;99397.53;4161637;28;20041;-72
2022/04/15 08:46:16;;;;;;;8.90;6.05;;;;;;;9.48;84.73;99394.94;4162480;28;20040;-71
2022/04/15 08:48:17;;;;;;;10.25;6.68;;;;;;;9.90;83.59;99413.94;4157108;28;20123;-71
2022/04/15 08:50:17;;;;;;;8.88;5.35;;;;;;;9.98;80.13;99417.72;4158887;28;20064;-72
2022/04/15 08:52:18;;;;;;;7.72;5.40;;;;;;;9.83;79.95;99416.50;4160577;28;20415;-71
2022/04/15 08:54:19;;;;;;;10.10;6.25;;;;;;;9.83;80.08;99416.50;4157063;28;20033;-71
2022/04/15 08:56:21;;;;;;;8.93;5.82;;;;;;;9.66;80.21;99411.25;4161793;28;20041;-71
2022/04/15 08:58:23;;;;;;;13.23;7.82;;;;;;;9.62;80.80;99416.69;4164164;28;20065;-71
2022/04/15 09:00:25;;;;;;;10.55;5.65;;;;;;;9.41;80.98;99422.34;4162006;28;20090;-71
2022/04/15 09:02:31;;;;;;;11.40;6.65;;;;;;;9.44;81.95;99421.66;4158174;28;20175;-71
2022/04/15 09:04:32;;;;;;;9.52;6.72;;;;;;;9.54;80.14;99425.91;4160461;28;20080;-72
2022/04/15 09:06:33;;;;;;;9.35;7.28;;;;;;;9.64;80.51;99421.84;4159599;28;20242;-72
2022/04/15 09:08:34;;;;;;;13.18;9.90;;;;;;;9.65;81.30;99435.31;4159658;28;20347;-71
2022/04/15 09:10:35;;;;;;;10.07;6.28;;;;;;;9.75;80.13;99425.72;4161734;28;20290;-71
2022/04/15 09:12:36;;;;;;;12.55;6.80;;;;;;;9.56;79.93;99429.91;4158487;28;20057;-72
2022/04/15 09:14:38;;;;;;;8.73;6.20;;;;;;;9.45;79.45;99433.53;4173431;28;20070;-71
2022/04/15 09:16:46;;;;;;;10.10;5.97;;;;;;;9.28;79.88;99427.09;4155419;28;20060;-72
2022/04/15 09:18:46;;;;;;;9.90;6.40;;;;;;;9.48;80.24;99441.91;4157622;28;20045;-71
2022/04/15 09:20:47;;;;;;;10.32;5.82;;;;;;;9.49;79.39;99432.47;4154524;28;20041;-72
2022/04/15 09:22:53;;;;;;;9.60;6.03;;;;;;;9.50;78.80;99433.25;4158125;28;20048;-71
2022/04/15 09:24:53;;;;;;;10.13;6.07;;;;;;;9.55;77.89;99433.84;4154093;28;20042;-71